Time;durP1;ratioP1;P1;durP2;ratioP2;P2;SDS_P1;SDS_P2;PMS_P1;PMS_P2;Temp;Humidity;BMP_temperature;BMP_pressure;BME280_temperature;BME280_humidity;BME280_pressure;Samples;Min_cycle;Max_cycle;Signal;HPM_P1;HPM_P2
2023/06/30 00:02:18;;;;;;;15.53;3.80;;;;;;;19.97;51.84;101114.69;4974732;28;20823;-74
2023/06/30 00:04:44;;;;;;;20.37;4.20;;;;;;;19.93;51.78;101123.41;4992285;28;20397;-75
2023/06/30 00:07:10;;;;;;;19.15;3.95;;;;;;;19.91;51.87;101118.22;4992267;28;20386;-75
2023/06/30 00:09:35;;;;;;;15.75;3.45;;;;;;;19.73;52.41;101112.81;4992291;28;20468;-76
2023/06/30 00:12:01;;;;;;;14.00;3.60;;;;;;;19.48;53.26;101109.09;4992500;28;20376;-75
2023/06/30 00:14:26;;;;;;;14.93;3.57;;;;;;;19.15;54.53;101121.94;4992117;28;20874;-75
2023/06/30 00:16:51;;;;;;;11.05;3.17;;;;;;;18.88;55.40;101114.84;4991919;28;20425;-75
2023/06/30 00:19:18;;;;;;;13.50;3.30;;;;;;;18.99;55.08;101120.59;4992156;28;20386;-75
2023/06/30 00:21:44;;;;;;;15.85;3.78;;;;;;;19.09;54.54;101113.72;4991995;28;20398;-75
2023/06/30 00:24:13;;;;;;;13.90;3.67;;;;;;;19.22;54.08;101110.09;4992016;28;20704;-75
2023/06/30 00:26:39;;;;;;;11.52;3.38;;;;;;;19.33;53.87;101107.75;4992651;28;20393;-74
2023/06/30 00:29:05;;;;;;;12.00;3.28;;;;;;;19.34;53.86;101106.69;4991977;28;20476;-74
2023/06/30 00:31:30;;;;;;;12.98;3.60;;;;;;;19.26;53.88;101099.75;4991915;28;20790;-74
2023/06/30 00:33:57;;;;;;;15.60;3.75;;;;;;;19.33;53.59;101100.50;4991963;28;20386;-75
2023/06/30 00:36:23;;;;;;;15.38;3.88;;;;;;;19.26;53.88;101102.44;4991845;28;20397;-74
2023/06/30 00:38:50;;;;;;;15.13;3.80;;;;;;;19.22;54.20;101111.97;4991723;28;20795;-74
2023/06/30 00:41:15;;;;;;;12.60;3.63;;;;;;;19.20;54.43;101116.75;4991744;28;20465;-75
2023/06/30 00:43:41;;;;;;;13.33;3.60;;;;;;;19.29;53.92;101118.94;4991388;28;20477;-74
2023/06/30 00:46:12;;;;;;;15.60;3.72;;;;;;;19.33;53.61;101107.75;4991802;28;20390;-74
2023/06/30 00:48:38;;;;;;;11.20;3.30;;;;;;;19.29;53.73;101099.31;4991744;28;20734;-74
2023/06/30 00:51:04;;;;;;;16.23;3.83;;;;;;;19.17;54.04;101096.50;4991580;28;20386;-74
2023/06/30 00:53:30;;;;;;;11.95;3.65;;;;;;;19.31;53.80;101099.09;4991592;28;20389;-74
2023/06/30 00:55:56;;;;;;;16.27;4.13;;;;;;;19.28;53.72;101100.34;4991418;28;20893;-74
2023/06/30 00:58:21;;;;;;;13.98;3.72;;;;;;;19.31;53.48;101091.84;4991138;28;20397;-74
2023/06/30 01:00:47;;;;;;;17.88;3.80;;;;;;;19.34;53.67;101094.09;4991311;28;20413;-74
2023/06/30 01:03:48;;;;;;;15.30;3.70;;;;;;;19.20;54.10;101090.69;4991362;28;20800;-74
2023/06/30 01:06:45;;;;;;;16.83;4.03;;;;;;;19.09;54.34;101089.53;4959535;28;20421;-74
2023/06/30 01:09:18;;;;;;;14.27;3.63;;;;;;;19.04;54.54;101088.53;4957833;28;20715;-74
2023/06/30 01:11:44;;;;;;;12.48;3.50;;;;;;;19.13;54.29;101092.59;4991639;28;20370;-73
2023/06/30 01:14:11;;;;;;;11.97;3.30;;;;;;;19.16;54.29;101102.06;4990986;28;20847;-73
2023/06/30 01:16:40;;;;;;;13.10;3.63;;;;;;;19.09;54.22;101091.41;4991435;28;20393;-75
2023/06/30 01:19:21;;;;;;;12.85;3.42;;;;;;;19.05;54.33;101098.22;4991368;28;20468;-74
2023/06/30 01:21:47;;;;;;;18.33;3.83;;;;;;;19.03;54.43;101094.94;4991149;28;20440;-74
2023/06/30 01:24:17;;;;;;;15.60;3.63;;;;;;;18.92;54.79;101085.69;4991051;28;20382;-74
2023/06/30 01:26:42;;;;;;;13.73;3.67;;;;;;;18.96;54.75;101091.47;4973934;28;20424;-74
2023/06/30 01:29:10;;;;;;;15.73;3.90;;;;;;;18.89;54.81;101091.53;4990811;28;20422;-74
2023/06/30 01:31:36;;;;;;;14.52;3.80;;;;;;;18.82;54.92;101088.88;4973913;28;20452;-75
2023/06/30 01:34:02;;;;;;;13.45;3.40;;;;;;;18.86;54.89;101095.44;4991022;28;20378;-75
2023/06/30 01:36:28;;;;;;;15.23;3.92;;;;;;;18.84;55.02;101096.72;4991139;28;20382;-75
2023/06/30 01:38:53;;;;;;;11.60;3.45;;;;;;;18.66;55.44;101076.72;4990324;28;20476;-74
2023/06/30 01:41:20;;;;;;;16.07;3.60;;;;;;;18.64;55.71;101089.56;4990451;28;20385;-74
2023/06/30 01:43:47;;;;;;;14.63;3.80;;;;;;;18.66;55.50;101074.03;4990356;28;20533;-75
2023/06/30 01:46:13;;;;;;;11.73;3.78;;;;;;;18.63;55.68;101085.22;4990946;28;20468;-75
2023/06/30 01:48:40;;;;;;;11.68;3.55;;;;;;;18.79;55.18;101085.75;4990978;28;20468;-75
2023/06/30 01:51:07;;;;;;;11.20;3.38;;;;;;;18.81;55.00;101092.59;4991163;28;20370;-74
2023/06/30 01:53:32;;;;;;;10.55;3.53;;;;;;;18.88;54.93;101085.31;4990888;28;20390;-74
2023/06/30 01:55:58;;;;;;;14.68;3.88;;;;;;;18.85;54.83;101076.84;4990777;28;20762;-74
2023/06/30 01:58:24;;;;;;;14.90;3.90;;;;;;;18.91;54.52;101073.31;4990582;28;20396;-74
2023/06/30 02:00:50;;;;;;;16.40;4.40;;;;;;;18.88;54.73;101079.94;4990634;28;20393;-76
2023/06/30 02:03:15;;;;;;;14.85;4.15;;;;;;;18.79;54.81;101065.09;4990689;28;20389;-75
2023/06/30 02:05:40;;;;;;;13.83;3.60;;;;;;;18.78;54.94;101076.03;4973574;28;20417;-74
2023/06/30 02:08:06;;;;;;;15.65;4.03;;;;;;;18.70;55.21;101075.25;4990709;28;20377;-74
2023/06/30 02:10:31;;;;;;;12.83;3.50;;;;;;;18.59;55.60;101073.25;4990761;28;20576;-74
2023/06/30 02:12:57;;;;;;;16.58;3.92;;;;;;;18.72;55.11;101077.72;4990485;28;20378;-74
2023/06/30 02:15:23;;;;;;;14.13;3.67;;;;;;;18.73;55.00;101069.47;4990589;28;20424;-74
2023/06/30 02:17:49;;;;;;;15.90;4.03;;;;;;;18.78;54.91;101071.50;4990740;28;20400;-74
2023/06/30 02:20:14;;;;;;;16.77;3.72;;;;;;;18.78;54.85;101071.50;4992038;28;20472;-74
2023/06/30 02:22:40;;;;;;;14.77;3.93;;;;;;;18.78;54.57;101078.72;4994552;28;20373;-75
2023/06/30 02:25:06;;;;;;;18.50;4.33;;;;;;;18.79;54.72;101083.88;4994233;28;20401;-74
2023/06/30 02:27:31;;;;;;;13.43;3.63;;;;;;;18.81;54.59;101083.69;4994193;28;20739;-74
2023/06/30 02:29:57;;;;;;;14.50;3.73;;;;;;;18.68;54.85;101079.22;4994397;28;20879;-75
2023/06/30 02:32:22;;;;;;;12.80;3.50;;;;;;;18.70;54.98;101083.31;4994169;28;20389;-74
2023/06/30 02:34:48;;;;;;;14.07;4.20;;;;;;;18.63;55.23;101077.16;4994095;28;20397;-74
2023/06/30 02:37:14;;;;;;;13.07;3.67;;;;;;;18.65;55.11;101079.63;4994130;28;20382;-74
2023/06/30 02:39:39;;;;;;;15.77;3.95;;;;;;;18.70;54.88;101077.94;4993762;28;20471;-74
2023/06/30 02:42:05;;;;;;;13.75;3.72;;;;;;;18.73;54.76;101076.72;4994073;28;20378;-74
2023/06/30 02:44:30;;;;;;;9.07;3.17;;;;;;;18.66;54.90;101073.22;4993987;28;20389;-74
2023/06/30 02:46:56;;;;;;;10.88;3.53;;;;;;;18.72;54.87;101083.91;4993958;28;20386;-74
2023/06/30 02:49:23;;;;;;;16.07;3.97;;;;;;;18.61;55.17;101083.78;4993784;28;20444;-74
2023/06/30 02:51:49;;;;;;;17.35;4.40;;;;;;;18.57;55.34;101080.72;4994103;28;20464;-74
2023/06/30 02:54:14;;;;;;;14.57;4.20;;;;;;;18.65;55.04;101082.31;4993360;28;20782;-74
2023/06/30 02:56:40;;;;;;;15.37;3.73;;;;;;;18.76;54.66;101080.81;4993619;28;20389;-74
2023/06/30 02:59:05;;;;;;;16.00;4.17;;;;;;;18.82;54.45;101071.94;4993498;28;20384;-74
2023/06/30 03:01:30;;;;;;;14.20;4.10;;;;;;;18.80;54.35;101074.81;4993383;28;20989;-74
2023/06/30 03:03:56;;;;;;;12.47;3.80;;;;;;;18.73;54.82;101071.34;4993612;28;20928;-74
2023/06/30 03:06:23;;;;;;;13.60;3.72;;;;;;;18.84;54.65;101075.22;4993497;28;20401;-74
2023/06/30 03:08:48;;;;;;;13.70;4.10;;;;;;;18.94;54.34;101080.94;4993328;28;20867;-74
2023/06/30 03:11:14;;;;;;;12.90;3.70;;;;;;;19.15;53.68;101079.75;4993702;28;20396;-74
2023/06/30 03:13:39;;;;;;;11.50;4.00;;;;;;;19.23;53.34;101079.50;4993925;28;20709;-74
2023/06/30 03:16:06;;;;;;;15.77;4.13;;;;;;;19.40;53.19;101071.72;4993580;28;20401;-74
2023/06/30 03:18:31;;;;;;;14.85;4.10;;;;;;;19.53;52.94;101076.16;4993589;28;20386;-74
2023/06/30 03:20:57;;;;;;;17.57;4.40;;;;;;;19.59;52.70;101071.75;4993116;28;20398;-74
2023/06/30 03:23:22;;;;;;;18.17;4.60;;;;;;;19.56;52.80;101069.53;4992896;28;20390;-74
2023/06/30 03:25:48;;;;;;;12.60;3.90;;;;;;;19.62;52.86;101071.31;4993094;28;20374;-74
2023/06/30 03:28:13;;;;;;;18.05;4.70;;;;;;;19.70;52.69;101072.88;4993183;28;20863;-74
2023/06/30 03:30:38;;;;;;;13.57;4.20;;;;;;;19.83;52.46;101067.44;4993029;28;20487;-74
2023/06/30 03:33:05;;;;;;;15.13;3.90;;;;;;;19.99;52.28;101074.09;4992257;28;20906;-74
2023/06/30 03:35:30;;;;;;;15.88;4.20;;;;;;;19.85;52.26;101070.72;4992801;28;20401;-74
2023/06/30 03:37:56;;;;;;;14.40;3.80;;;;;;;19.63;52.71;101071.09;4992884;28;20385;-75
2023/06/30 03:40:21;;;;;;;12.40;3.80;;;;;;;19.65;52.91;101078.94;4992952;28;20377;-75
2023/06/30 03:42:47;;;;;;;11.77;3.50;;;;;;;19.87;52.63;101076.69;4993490;28;20417;-75
2023/06/30 03:45:12;;;;;;;15.93;4.50;;;;;;;20.04;52.28;101079.59;4992761;28;20375;-75
2023/06/30 03:47:38;;;;;;;21.17;4.60;;;;;;;20.29;51.92;101079.53;4992017;28;20452;-74
2023/06/30 03:50:03;;;;;;;12.47;3.97;;;;;;;20.42;51.43;101067.78;4990657;28;20386;-75
2023/06/30 03:52:29;;;;;;;14.93;4.45;;;;;;;20.35;51.49;101075.13;4990011;28;20501;-75
2023/06/30 03:54:54;;;;;;;14.00;4.30;;;;;;;20.34;51.54;101066.22;4990188;28;20752;-74
2023/06/30 03:57:20;;;;;;;17.53;4.50;;;;;;;20.39;51.48;101076.31;4990165;28;20389;-74
2023/06/30 03:59:46;;;;;;;11.85;3.80;;;;;;;20.51;51.22;101068.28;4990225;28;20378;-74
2023/06/30 04:02:11;;;;;;;11.35;3.78;;;;;;;20.75;51.03;101072.75;4976654;28;20414;-75
2023/06/30 04:04:37;;;;;;;12.50;4.10;;;;;;;20.99;50.58;101065.56;4990892;28;20401;-74
2023/06/30 04:07:03;;;;;;;13.07;3.88;;;;;;;21.14;49.96;101067.81;4990180;28;20373;-74
2023/06/30 04:09:28;;;;;;;18.10;3.93;;;;;;;21.16;49.77;101067.59;4991390;28;20378;-74
2023/06/30 04:11:53;;;;;;;14.27;3.80;;;;;;;20.87;49.96;101077.34;4991264;28;20401;-74
2023/06/30 04:14:19;;;;;;;13.93;4.20;;;;;;;20.89;50.39;101077.97;4991754;28;20826;-75
2023/06/30 04:16:44;;;;;;;18.80;4.27;;;;;;;21.13;49.91;101076.94;4991740;28;20459;-74
2023/06/30 04:19:10;;;;;;;12.07;3.83;;;;;;;21.22;49.48;101073.94;4989082;28;20385;-75
2023/06/30 04:21:35;;;;;;;12.17;4.20;;;;;;;21.35;49.45;101063.72;4991378;28;20378;-74
2023/06/30 04:24:01;;;;;;;20.80;5.33;;;;;;;21.53;48.98;101068.22;4992010;28;20424;-74
2023/06/30 04:26:28;;;;;;;12.63;4.43;;;;;;;21.60;48.93;101084.31;4992044;28;20454;-74
2023/06/30 04:28:53;;;;;;;12.45;3.88;;;;;;;21.57;48.56;101072.13;4992428;28;20500;-75
2023/06/30 04:31:19;;;;;;;13.20;4.03;;;;;;;21.53;48.73;101070.94;4992091;28;20971;-75
2023/06/30 04:33:44;;;;;;;12.57;4.30;;;;;;;21.63;48.55;101083.03;4991245;28;20385;-74
2023/06/30 04:36:10;;;;;;;9.07;3.72;;;;;;;21.76;48.42;101075.50;4990494;28;20409;-76
2023/06/30 04:38:35;;;;;;;12.30;3.93;;;;;;;21.87;48.22;101076.53;4990699;28;20393;-76
2023/06/30 04:41:01;;;;;;;10.20;3.70;;;;;;;22.02;48.02;101077.94;4991561;28;20394;-75
2023/06/30 04:43:26;;;;;;;14.13;4.68;;;;;;;22.10;47.61;101073.00;4990998;28;20456;-74
2023/06/30 04:45:52;;;;;;;18.17;5.03;;;;;;;21.86;47.95;101074.94;4991027;28;20390;-74
2023/06/30 04:48:17;;;;;;;16.07;4.97;;;;;;;21.87;47.96;101087.34;4979213;28;20387;-74
2023/06/30 04:50:43;;;;;;;10.32;4.10;;;;;;;21.87;48.20;101094.63;4984947;28;20743;-76
2023/06/30 04:53:08;;;;;;;13.87;4.10;;;;;;;21.78;48.38;101094.16;4989029;28;20433;-75
2023/06/30 04:55:34;;;;;;;12.10;3.77;;;;;;;21.85;47.99;101089.47;4989077;28;20905;-75
2023/06/30 04:57:59;;;;;;;14.20;3.55;;;;;;;21.46;48.53;101085.59;4989361;28;20455;-75
2023/06/30 05:00:26;;;;;;;9.27;3.33;;;;;;;21.37;48.56;101087.78;4990227;28;20463;-75
2023/06/30 05:02:51;;;;;;;15.03;3.70;;;;;;;21.57;48.47;101098.25;4990913;28;20439;-74
2023/06/30 05:05:18;;;;;;;10.27;3.22;;;;;;;21.72;48.36;101098.63;4991090;28;20863;-75
2023/06/30 05:07:43;;;;;;;15.45;3.65;;;;;;;22.07;47.80;101094.25;4991398;28;20389;-75
2023/06/30 05:10:09;;;;;;;10.83;3.47;;;;;;;22.05;47.89;101088.28;4990617;28;20401;-75
2023/06/30 05:12:35;;;;;;;9.77;3.72;;;;;;;22.00;47.59;101086.28;4991299;28;20389;-75
2023/06/30 05:15:01;;;;;;;9.68;3.70;;;;;;;22.11;47.73;101080.06;4990772;28;20862;-75
2023/06/30 05:17:26;;;;;;;11.30;3.50;;;;;;;22.26;47.42;101079.56;4991371;28;20492;-75
2023/06/30 05:19:52;;;;;;;14.73;3.90;;;;;;;22.58;46.96;101092.63;4990627;28;20433;-75
2023/06/30 05:22:17;;;;;;;13.97;4.20;;;;;;;22.75;46.74;101081.03;4990872;28;20414;-75
2023/06/30 05:24:42;;;;;;;12.93;4.03;;;;;;;22.78;46.63;101088.66;4992198;28;20980;-75
2023/06/30 05:27:08;;;;;;;11.98;3.70;;;;;;;23.03;46.22;101082.88;4990961;28;20394;-75
2023/06/30 05:29:34;;;;;;;12.90;3.77;;;;;;;23.07;45.93;101084.06;4992065;28;20792;-75
2023/06/30 05:31:59;;;;;;;13.07;3.97;;;;;;;23.28;45.65;101083.34;4991821;28;20394;-75
2023/06/30 05:34:25;;;;;;;13.68;3.90;;;;;;;23.42;45.31;101085.72;4991141;28;20439;-75
2023/06/30 05:36:51;;;;;;;9.33;3.70;;;;;;;23.40;45.42;101080.53;4990914;28;20397;-76
2023/06/30 05:39:16;;;;;;;8.40;3.42;;;;;;;23.54;45.02;101078.34;4992843;28;20378;-76
2023/06/30 05:41:42;;;;;;;8.07;3.37;;;;;;;23.62;45.29;101075.22;4992103;28;20786;-76
2023/06/30 05:44:07;;;;;;;9.85;3.80;;;;;;;23.90;45.26;101075.34;4992551;28;20392;-77
2023/06/30 05:46:39;;;;;;;11.40;3.80;;;;;;;23.88;44.66;101080.19;4959341;28;20405;-76
2023/06/30 05:49:05;;;;;;;7.22;3.70;;;;;;;23.94;45.20;101081.91;4991800;28;20400;-76
2023/06/30 05:51:35;;;;;;;10.45;3.95;;;;;;;24.22;44.36;101079.00;4992157;28;20470;-76
2023/06/30 05:54:02;;;;;;;9.02;3.63;;;;;;;24.43;44.33;101079.25;4974913;28;20382;-76
2023/06/30 05:56:28;;;;;;;11.25;3.60;;;;;;;24.75;43.63;101075.81;4995388;28;20831;-76
2023/06/30 05:58:53;;;;;;;8.03;3.20;;;;;;;24.61;43.12;101078.13;4996302;28;20416;-78
2023/06/30 06:01:20;;;;;;;9.05;3.00;;;;;;;24.07;43.91;101084.22;4978461;28;20926;-74
2023/06/30 06:03:46;;;;;;;9.43;3.60;;;;;;;24.40;44.01;101080.59;4993813;28;20617;-75
2023/06/30 06:06:12;;;;;;;7.13;3.70;;;;;;;24.87;43.40;101067.53;5000905;28;20401;-75
2023/06/30 06:08:43;;;;;;;11.75;3.75;;;;;;;25.20;42.80;101077.31;5008806;28;20392;-75
2023/06/30 06:11:08;;;;;;;11.03;3.23;;;;;;;25.14;42.40;101068.31;4995381;28;20394;-75
2023/06/30 06:13:37;;;;;;;10.40;3.30;;;;;;;25.05;41.71;101074.47;4992741;28;20393;-75
2023/06/30 06:16:05;;;;;;;9.27;3.10;;;;;;;24.99;41.99;101073.59;4992861;28;20402;-75
2023/06/30 06:18:30;;;;;;;12.80;3.40;;;;;;;25.11;41.93;101071.53;4994524;28;20480;-75
2023/06/30 06:20:56;;;;;;;10.95;3.42;;;;;;;25.35;41.59;101076.63;4994149;28;20528;-75
2023/06/30 06:23:22;;;;;;;11.25;3.63;;;;;;;25.01;41.95;101071.44;4993561;28;20393;-75
2023/06/30 06:25:49;;;;;;;9.73;3.40;;;;;;;25.19;42.14;101065.66;4997902;28;20385;-75
2023/06/30 06:28:14;;;;;;;7.47;3.30;;;;;;;25.42;42.55;101066.38;5003612;28;20879;-74
2023/06/30 06:30:40;;;;;;;11.80;3.40;;;;;;;25.84;42.18;101068.28;4997541;28;20394;-74
2023/06/30 06:33:05;;;;;;;7.50;2.97;;;;;;;26.01;41.76;101061.88;4993560;28;20391;-74
2023/06/30 06:35:31;;;;;;;8.50;3.10;;;;;;;26.02;41.12;101072.47;4994596;28;20408;-76
2023/06/30 06:37:56;;;;;;;11.98;3.50;;;;;;;25.96;41.65;101065.34;4994108;28;20394;-76
2023/06/30 06:40:22;;;;;;;9.10;3.60;;;;;;;26.19;42.13;101055.94;4994545;28;20402;-75
2023/06/30 06:42:47;;;;;;;6.63;3.00;;;;;;;26.35;41.39;101058.72;4996679;28;20397;-74
2023/06/30 06:45:13;;;;;;;8.18;3.40;;;;;;;26.43;41.20;101059.00;4986936;28;20388;-79
2023/06/30 06:48:16;;;;;;;7.37;3.30;;;;;;;26.70;41.26;101058.84;5004246;28;20384;-75
2023/06/30 06:50:42;;;;;;;10.10;4.20;;;;;;;26.97;40.59;101055.03;4999310;28;20372;-74
2023/06/30 06:53:07;;;;;;;9.57;3.80;;;;;;;27.03;40.42;101048.50;5002844;28;20386;-75
2023/06/30 06:55:33;;;;;;;7.07;3.00;;;;;;;27.03;40.35;101051.25;5006026;28;20737;-75
2023/06/30 06:57:58;;;;;;;7.82;2.90;;;;;;;27.18;39.72;101047.69;5013174;28;20399;-78
2023/06/30 07:00:24;;;;;;;10.50;3.50;;;;;;;27.23;38.95;101044.16;4993646;28;20462;-76
2023/06/30 07:02:50;;;;;;;13.33;3.70;;;;;;;27.25;39.47;101050.13;5002809;28;20513;-75
2023/06/30 07:05:16;;;;;;;11.38;3.60;;;;;;;27.55;39.25;101048.47;5005408;28;20403;-76
2023/06/30 07:07:41;;;;;;;8.40;4.63;;;;;;;27.68;39.62;101042.47;5003010;28;20747;-77
2023/06/30 07:10:07;;;;;;;10.87;4.67;;;;;;;27.78;39.56;101036.16;4994902;28;20459;-76
2023/06/30 07:12:33;;;;;;;9.02;3.80;;;;;;;27.88;39.79;101027.94;4994882;28;20659;-74
2023/06/30 07:14:59;;;;;;;9.00;3.03;;;;;;;28.00;38.91;101024.91;4993048;28;20724;-77
2023/06/30 07:17:24;;;;;;;9.73;3.33;;;;;;;28.14;38.42;101031.38;4995444;28;20476;-74
2023/06/30 07:19:49;;;;;;;10.40;3.05;;;;;;;28.33;38.31;101022.59;4995355;28;20727;-75
2023/06/30 07:22:15;;;;;;;11.10;3.58;;;;;;;28.51;37.48;101021.91;4994894;28;20447;-76
2023/06/30 07:24:40;;;;;;;5.83;2.37;;;;;;;28.00;36.88;101025.75;4995627;28;20381;-74
2023/06/30 07:27:06;;;;;;;6.93;2.53;;;;;;;28.09;36.23;101025.16;4977807;28;20382;-75
2023/06/30 07:29:31;;;;;;;9.17;2.90;;;;;;;28.36;36.35;101022.84;4991545;28;20452;-75
2023/06/30 07:31:57;;;;;;;10.93;3.23;;;;;;;28.39;36.52;101024.16;4979048;28;20391;-75
2023/06/30 07:34:23;;;;;;;6.30;2.65;;;;;;;28.15;36.52;101024.84;5000186;28;20914;-73
2023/06/30 07:36:53;;;;;;;8.98;2.55;;;;;;;28.34;35.67;101025.03;4993589;28;20382;-75
2023/06/30 07:39:18;;;;;;;7.93;2.55;;;;;;;28.14;34.88;101016.94;4993649;28;20480;-74
2023/06/30 07:41:44;;;;;;;8.80;2.37;;;;;;;28.15;34.92;101022.13;5007002;28;20461;-76
2023/06/30 07:44:11;;;;;;;12.10;2.80;;;;;;;28.29;34.84;101019.59;4993208;28;20381;-75
2023/06/30 07:46:37;;;;;;;7.18;2.53;;;;;;;27.82;35.45;101020.88;4992992;28;20377;-74
2023/06/30 07:49:03;;;;;;;9.38;2.90;;;;;;;27.71;36.43;101022.00;4976311;28;20385;-74
2023/06/30 07:51:29;;;;;;;6.90;2.50;;;;;;;28.21;36.16;101023.72;4993077;28;20389;-74
2023/06/30 07:53:55;;;;;;;11.93;2.65;;;;;;;28.31;34.59;101014.69;4992847;28;20377;-74
2023/06/30 07:56:21;;;;;;;10.85;2.75;;;;;;;27.64;35.01;101014.13;4993121;28;20901;-75
2023/06/30 07:58:46;;;;;;;7.70;2.23;;;;;;;27.74;34.74;101016.03;4993154;28;20480;-74
2023/06/30 08:01:12;;;;;;;5.88;2.25;;;;;;;28.10;34.64;101013.97;4994272;28;20402;-75
2023/06/30 08:03:38;;;;;;;7.93;2.50;;;;;;;28.51;35.18;101012.94;4994509;28;20373;-74
2023/06/30 08:06:03;;;;;;;8.55;2.70;;;;;;;28.14;34.54;101016.94;4994141;28;20382;-75
2023/06/30 08:08:32;;;;;;;7.07;2.38;;;;;;;28.07;34.57;101002.81;4993904;28;20382;-75
2023/06/30 08:10:58;;;;;;;10.98;3.00;;;;;;;28.44;35.05;101005.06;4994317;28;20377;-74
2023/06/30 08:13:25;;;;;;;7.78;2.08;;;;;;;28.21;33.98;101001.09;4993285;28;20953;-75
2023/06/30 08:15:51;;;;;;;10.88;2.65;;;;;;;28.09;34.90;100995.16;4994037;28;20424;-75
2023/06/30 08:18:16;;;;;;;10.00;2.60;;;;;;;28.20;34.10;100994.84;4993029;28;20743;-76
2023/06/30 08:20:42;;;;;;;8.30;2.50;;;;;;;28.76;34.66;100996.38;4994180;28;20878;-75
2023/06/30 08:23:08;;;;;;;8.67;2.30;;;;;;;29.00;33.97;100992.09;4992812;28;20385;-75
2023/06/30 08:25:33;;;;;;;7.93;2.42;;;;;;;29.09;33.20;100988.44;4993039;28;20382;-75
2023/06/30 08:27:59;;;;;;;7.15;2.30;;;;;;;29.39;33.38;100992.00;4992629;28;20481;-75
2023/06/30 08:30:24;;;;;;;7.33;2.00;;;;;;;29.35;32.57;101001.84;4992538;28;20720;-75
2023/06/30 08:32:50;;;;;;;8.23;2.10;;;;;;;28.59;31.98;100996.81;4992715;28;20385;-75
2023/06/30 08:35:16;;;;;;;7.82;2.13;;;;;;;28.68;31.84;100988.81;4993424;28;20409;-75
2023/06/30 08:37:42;;;;;;;7.23;2.03;;;;;;;28.59;31.69;101001.44;4992869;28;20392;-75
2023/06/30 08:40:09;;;;;;;15.57;3.00;;;;;;;28.55;32.26;100981.28;4992918;28;20869;-75
2023/06/30 08:42:36;;;;;;;8.60;2.20;;;;;;;28.36;32.58;100994.72;4991783;28;20867;-76
2023/06/30 08:45:03;;;;;;;9.07;2.33;;;;;;;28.46;32.57;100985.69;4992497;28;20735;-75
2023/06/30 08:47:32;;;;;;;4.00;1.80;;;;;;;28.48;32.25;100987.03;4993035;28;20385;-75
2023/06/30 08:49:58;;;;;;;6.80;1.95;;;;;;;28.30;32.81;100985.78;4993781;28;20382;-77
2023/06/30 08:52:25;;;;;;;7.63;2.10;;;;;;;28.20;33.40;100981.22;4992119;28;20473;-76
2023/06/30 08:54:50;;;;;;;8.43;2.22;;;;;;;28.53;33.16;100978.84;4992298;28;20851;-75
2023/06/30 08:57:17;;;;;;;7.67;2.20;;;;;;;28.72;32.61;100978.97;4992037;28;20389;-75
2023/06/30 08:59:43;;;;;;;8.63;2.20;;;;;;;28.69;32.39;100978.72;4975614;28;20432;-75
2023/06/30 09:02:10;;;;;;;6.47;2.20;;;;;;;28.93;32.60;100976.84;4974860;28;20584;-74
2023/06/30 09:04:38;;;;;;;7.43;2.75;;;;;;;29.08;32.72;100975.09;4992154;28;20393;-76
2023/06/30 09:07:14;;;;;;;16.70;2.90;;;;;;;29.60;32.29;100975.38;4991515;28;20496;-76
2023/06/30 09:09:45;;;;;;;9.60;2.50;;;;;;;29.81;32.08;100979.50;4992004;28;20429;-76
2023/06/30 09:12:11;;;;;;;5.43;1.77;;;;;;;29.83;31.83;100969.09;4974481;28;20468;-75
2023/06/30 09:14:43;;;;;;;11.10;4.80;;;;;;;29.88;32.67;100963.56;5007727;28;20543;-74
2023/06/30 09:17:08;;;;;;;7.15;2.30;;;;;;;30.09;32.03;100963.28;4991614;28;20413;-75
2023/06/30 09:19:35;;;;;;;8.20;2.30;;;;;;;30.19;31.56;100959.56;4991708;28;20491;-75
2023/06/30 09:22:02;;;;;;;9.55;2.65;;;;;;;30.40;32.26;100954.66;4991330;28;20405;-75
2023/06/30 09:24:27;;;;;;;4.78;1.88;;;;;;;30.35;30.56;100961.00;4992199;28;20377;-75
2023/06/30 09:26:53;;;;;;;6.80;2.20;;;;;;;30.48;30.48;100967.63;4974923;28;20551;-78
2023/06/30 09:29:23;;;;;;;5.00;1.70;;;;;;;30.54;29.86;100960.97;4991207;28;20385;-76
2023/06/30 09:31:52;;;;;;;8.95;2.50;;;;;;;30.58;30.49;100953.00;4992153;28;20456;-75
2023/06/30 09:34:19;;;;;;;6.00;2.00;;;;;;;30.91;30.40;100944.75;4991988;28;20382;-76
2023/06/30 09:36:49;;;;;;;9.13;2.00;;;;;;;30.19;28.69;100952.19;4991875;28;20396;-75
2023/06/30 09:39:15;;;;;;;6.00;1.90;;;;;;;29.69;29.74;100944.38;4991500;28;20847;-75
2023/06/30 09:41:44;;;;;;;5.00;1.50;;;;;;;29.99;29.77;100934.16;4991723;28;20397;-76
2023/06/30 09:44:11;;;;;;;8.70;2.10;;;;;;;30.41;29.66;100946.13;4992000;28;20397;-75
2023/06/30 09:46:47;;;;;;;4.22;1.80;;;;;;;30.67;30.05;100934.78;4991384;28;20377;-77
2023/06/30 09:49:30;;;;;;;6.30;2.03;;;;;;;30.85;30.06;100935.81;4991829;28;20388;-75
2023/06/30 09:51:57;;;;;;;5.50;1.75;;;;;;;30.88;29.19;100933.28;4991598;28;20990;-76
2023/06/30 09:54:23;;;;;;;7.25;2.20;;;;;;;31.18;29.86;100941.25;4991386;28;20382;-76
2023/06/30 09:56:59;;;;;;;9.70;2.10;;;;;;;31.15;28.77;100925.41;4991106;28;20727;-78
2023/06/30 09:59:25;;;;;;;5.90;1.65;;;;;;;31.10;28.70;100929.09;4990620;28;20390;-76
2023/06/30 10:01:59;;;;;;;5.95;2.03;;;;;;;31.15;27.93;100926.25;4991057;28;20406;-75
2023/06/30 10:04:27;;;;;;;8.40;2.22;;;;;;;30.92;27.95;100928.06;4979320;28;20409;-75
2023/06/30 10:06:54;;;;;;;7.88;2.00;;;;;;;30.98;28.32;100917.81;4991218;28;20409;-74
2023/06/30 10:09:21;;;;;;;10.75;2.35;;;;;;;31.19;28.69;100923.72;4991057;28;20393;-76
2023/06/30 10:11:51;;;;;;;6.20;1.90;;;;;;;30.85;27.97;100920.19;4991134;28;20425;-75
2023/06/30 10:14:20;;;;;;;6.22;1.98;;;;;;;31.01;29.08;100915.28;4992625;28;20476;-75
2023/06/30 10:16:47;;;;;;;5.78;1.90;;;;;;;31.44;29.90;100916.91;4990942;28;20405;-75
2023/06/30 10:19:14;;;;;;;8.82;2.00;;;;;;;31.58;29.48;100914.16;4991213;28;20449;-75
2023/06/30 10:21:40;;;;;;;8.00;2.00;;;;;;;31.47;27.47;100901.78;4991717;28;20884;-75
2023/06/30 10:24:09;;;;;;;7.85;2.15;;;;;;;31.39;27.68;100892.38;4990945;28;20394;-75
2023/06/30 10:26:36;;;;;;;5.15;1.75;;;;;;;31.40;27.97;100899.44;4991725;28;20476;-75
2023/06/30 10:29:02;;;;;;;6.20;2.60;;;;;;;31.54;28.06;100888.50;4992195;28;20385;-76
2023/06/30 10:31:28;;;;;;;7.70;3.28;;;;;;;31.77;29.37;100881.16;4991713;28;20502;-75
2023/06/30 10:33:53;;;;;;;9.07;4.90;;;;;;;31.85;28.50;100885.06;4991711;28;20421;-75
2023/06/30 10:36:19;;;;;;;9.20;4.20;;;;;;;31.66;27.54;100887.94;4991202;28;20890;-76
2023/06/30 10:38:46;;;;;;;6.00;1.95;;;;;;;31.66;27.19;100880.56;4991400;28;20400;-75
2023/06/30 10:41:19;;;;;;;7.97;2.23;;;;;;;31.38;27.28;100877.84;4992362;28;20877;-75
2023/06/30 10:44:03;;;;;;;2.92;1.52;;;;;;;31.67;27.28;100881.38;4994593;28;20378;-75
2023/06/30 10:46:47;;;;;;;6.30;1.83;;;;;;;31.45;27.24;100871.94;4982102;28;20492;-75
2023/06/30 10:49:30;;;;;;;4.57;1.70;;;;;;;31.67;27.06;100873.94;4995369;28;20925;-75
2023/06/30 10:51:57;;;;;;;8.35;2.22;;;;;;;31.77;27.15;100865.50;4994758;28;20390;-77
2023/06/30 10:54:47;;;;;;;7.03;2.00;;;;;;;31.52;26.89;100871.56;5009962;28;20401;-75
2023/06/30 10:57:24;;;;;;;11.43;2.20;;;;;;;31.38;26.97;100864.13;4994871;28;20426;-75
2023/06/30 11:00:10;;;;;;;15.50;6.70;;;;;;;31.74;27.51;100862.56;4994777;28;20382;-75
2023/06/30 11:02:37;;;;;;;12.57;6.22;;;;;;;31.95;27.40;100855.47;4987941;28;20446;-75
2023/06/30 11:05:29;;;;;;;7.22;3.25;;;;;;;31.88;28.12;100851.56;4982372;28;20405;-76
2023/06/30 11:08:09;;;;;;;6.03;1.90;;;;;;;31.92;27.06;100841.59;4984491;28;20416;-75
2023/06/30 11:10:44;;;;;;;10.60;2.00;;;;;;;31.95;26.61;100852.75;4974767;28;20387;-76
2023/06/30 11:13:10;;;;;;;4.55;1.60;;;;;;;31.89;25.59;100843.03;4973056;28;20446;-75
2023/06/30 11:15:41;;;;;;;7.90;2.20;;;;;;;31.87;25.51;100845.25;4975199;28;20411;-76
2023/06/30 11:18:21;;;;;;;7.13;3.15;;;;;;;31.79;25.71;100837.78;4974021;28;20391;-76
2023/06/30 11:21:06;;;;;;;8.52;3.20;;;;;;;32.14;26.29;100830.66;4975126;28;20383;-75